Excalibur — FAD3440 — position and weather

sailwx.info

Track history (hours):
 
Tides and Currents Weather Stations Pressure Air Temp Water Temp Dewpoint Dewpoint Depression Visibility Wind Speed Wind Dir Waves Ship Positions

Excalibur

Last reported at 2017-Aug-27 08:37 UTC. Time now 2017-Sep-21 07:14 UTC.
Position N 47°44' W 003°38'.
Warning: this ship's position is 24 days out of date.

Length 11 m.

Type: Sailing vessel. MMSI: 227383920.

Date/timePositionNaut miles runAvg speedWind from/ knotsBaromVisibWave heightAir tempDewpointWater temp
2017-Aug-27 08:37N 47°44' W 003°38'1 6.5
2017-Aug-27 08:30N 47°44' W 003°37'3 6.5
2017-Aug-27 08:00N 47°41' W 003°33'3 6.4
2017-Aug-27 07:30N 47°40' W 003°29'2 3.6
2017-Aug-27 06:58N 47°39' W 003°27'0 0.0
2017-Aug-27 06:28N 47°39' W 003°27'0 0.0
2017-Aug-27 05:58N 47°39' W 003°27'0 0.0
2017-Aug-26 13:14N 47°39' W 003°27'0 0.0
2017-Aug-26 12:59N 47°39' W 003°27'0 0.0
2017-Aug-26 12:29N 47°39' W 003°27'0 0.0
2017-Aug-26 11:59N 47°39' W 003°27'0 0.0
2017-Aug-26 11:29N 47°39' W 003°27'1 1.9
2017-Aug-26 10:59N 47°39' W 003°28'2 4.9
2017-Aug-26 10:30N 47°41' W 003°31'11 0.6
2017-Aug-25 14:59N 47°48' W 003°43'6 5.8
2017-Aug-25 14:00N 47°44' W 003°36'3 6.3
2017-Aug-25 13:30N 47°42' W 003°33'3 6.0
2017-Aug-25 13:00N 47°41' W 003°29'3 5.8
2017-Aug-25 12:30N 47°39' W 003°26'3 5.4
2017-Aug-25 12:00N 47°37' W 003°23'3 5.8
2017-Aug-25 11:30N 47°35' W 003°20'2 5.0
2017-Aug-25 11:00N 47°33' W 003°17'3 5.9
2017-Aug-25 10:30N 47°31' W 003°14'3 5.8
2017-Aug-25 10:00N 47°29' W 003°11'3 5.9
2017-Aug-25 09:30N 47°27' W 003°08'3 5.6
2017-Aug-25 08:59N 47°27' W 003°03'2 3.7
2017-Aug-25 08:30N 47°28' W 003°04'2 3.6
2017-Aug-25 07:59N 47°29' W 003°06'0 0.0
2017-Aug-24 17:11N 47°29' W 003°06'0 0.0
2017-Aug-24 16:54N 47°29' W 003°06'0 0.0
2017-Aug-24 16:30N 47°29' W 003°06'2 4.1
2017-Aug-24 16:00N 47°30' W 003°03'2 4.7
2017-Aug-24 15:30N 47°31' W 002°60'2 3.2
2017-Aug-24 15:00N 47°30' W 002°58'3 5.4
2017-Aug-24 14:30N 47°28' W 002°57'3 5.9
2017-Aug-24 14:00N 47°25' W 002°56'1 2.4
2017-Aug-24 13:28N 47°23' W 002°56'0 0.0
2017-Aug-24 12:58N 47°23' W 002°56'0 0.0
2017-Aug-24 12:28N 47°23' W 002°56'0 0.0
2017-Aug-24 11:58N 47°23' W 002°56'2 3.1
2017-Aug-24 11:27N 47°22' W 002°55'2 5.1
2017-Aug-24 10:59N 47°20' W 002°57'3 5.3
2017-Aug-24 10:30N 47°21' W 003°00'3 5.5
2017-Aug-24 10:00N 47°22' W 003°04'2 5.0
2017-Aug-24 09:30N 47°22' W 003°08'2 4.5
2017-Aug-24 08:59N 47°22' W 003°11'1 2.2
2017-Aug-24 08:25N 47°23' W 003°13'0 0.0
2017-Aug-23 19:24N 47°23' W 003°13'0 0.0
2017-Aug-23 18:57N 47°23' W 003°13'0 0.0
2017-Aug-23 18:24N 47°23' W 003°13'0 0.0
2017-Aug-23 18:00N 47°23' W 003°13'0 0.0
2017-Aug-23 17:24N 47°23' W 003°13'0 0.0
2017-Aug-23 16:54N 47°23' W 003°13'0 0.0
2017-Aug-23 16:30N 47°23' W 003°13'0 0.0
2017-Aug-23 15:57N 47°23' W 003°13'0 0.0
2017-Aug-23 15:30N 47°23' W 003°13'0 0.0
2017-Aug-23 14:54N 47°23' W 003°13'0 0.0
2017-Aug-23 14:30N 47°23' W 003°13'5 5.5
2017-Aug-23 13:30N 47°28' W 003°14'3 6.8
2017-Aug-23 13:00N 47°31' W 003°17'3 6.9
2017-Aug-23 12:30N 47°34' W 003°20'3 6.8
2017-Aug-23 12:00N 47°37' W 003°22'3 6.6
2017-Aug-23 11:30N 47°40' W 003°24'2 4.2
2017-Aug-23 11:00N 47°39' W 003°27'1 1.7
2017-Aug-23 10:29N 47°39' W 003°28'0 0.0
2017-Aug-22 20:53N 47°39' W 003°28'0 0.0
2017-Aug-22 19:01N 47°39' W 003°28'0 0.1
2017-Aug-22 18:58N 47°39' W 003°28'0 0.0
2017-Aug-22 18:28N 47°39' W 003°28'0 0.0
2017-Aug-22 17:55N 47°39' W 003°28'0 0.0
2017-Aug-22 17:28N 47°39' W 003°28'0 0.9
2017-Aug-22 17:00N 47°39' W 003°28'3 6.2
2017-Aug-22 16:30N 47°41' W 003°31'3 6.2
2017-Aug-22 15:56N 47°44' W 003°34'3 1.3
2017-Aug-22 13:53N 47°46' W 003°37'0 0.1
2017-Aug-22 12:22N 47°46' W 003°37'2 4.4
2017-Aug-22 12:00N 47°46' W 003°39'  
2017-Aug-18 13:19N 47°46' W 003°39'2 4.6
2017-Aug-18 12:50N 47°45' W 003°36'0 1.4
2017-Aug-18 12:30N 47°45' W 003°36'2 4.5
2017-Aug-18 12:00N 47°44' W 003°33'3 5.3
2017-Aug-18 11:30N 47°42' W 003°31'3 5.5
2017-Aug-18 11:00N 47°40' W 003°28'1 2.2
2017-Aug-18 10:29N 47°39' W 003°27'0 0.0
2017-Aug-17 18:06N 47°39' W 003°27'0 0.0
2017-Aug-17 18:00N 47°39' W 003°27'1 1.8
2017-Aug-17 17:30N 47°39' W 003°26'3 6.0
2017-Aug-17 17:01N 47°37' W 003°22'3 6.3
2017-Aug-17 16:31N 47°35' W 003°19'3 6.2
2017-Aug-17 16:00N 47°33' W 003°15'3 6.6
2017-Aug-17 15:31N 47°30' W 003°12'3 6.8
2017-Aug-17 15:00N 47°28' W 003°08'3 5.1
2017-Aug-17 14:30N 47°26' W 003°06'3 5.8
2017-Aug-17 14:00N 47°27' W 003°01'3 5.9
2017-Aug-17 13:30N 47°29' W 002°58'3 5.5
2017-Aug-17 13:00N 47°31' W 002°56'2 3.2
2017-Aug-17 12:29N 47°32' W 002°54'  
Track history (hours):
 
Tides and Currents Weather Stations Pressure Air Temp Water Temp Dewpoint Dewpoint Depression Visibility Wind Speed Wind Dir Waves Ship Positions

Excalibur

Last reported at 2017-Aug-27 08:37 UTC. Time now 2017-Sep-21 07:14 UTC.
Position N 47°44' W 003°38'.
Warning: this ship's position is 24 days out of date.

Length 11 m.

Type: Sailing vessel. MMSI: 227383920.

Date/timePositionNaut miles runAvg speedWind from/ knotsBaromVisibWave heightAir tempDewpointWater temp
2017-Aug-27 08:37N 47°44' W 003°38'1 6.5
2017-Aug-27 08:30N 47°44' W 003°37'3 6.5
2017-Aug-27 08:00N 47°41' W 003°33'3 6.4
2017-Aug-27 07:30N 47°40' W 003°29'2 3.6
2017-Aug-27 06:58N 47°39' W 003°27'0 0.0
2017-Aug-27 06:28N 47°39' W 003°27'0 0.0
2017-Aug-27 05:58N 47°39' W 003°27'0 0.0
2017-Aug-26 13:14N 47°39' W 003°27'0 0.0
2017-Aug-26 12:59N 47°39' W 003°27'0 0.0
2017-Aug-26 12:29N 47°39' W 003°27'0 0.0
2017-Aug-26 11:59N 47°39' W 003°27'0 0.0
2017-Aug-26 11:29N 47°39' W 003°27'1 1.9
2017-Aug-26 10:59N 47°39' W 003°28'2 4.9
2017-Aug-26 10:30N 47°41' W 003°31'11 0.6
2017-Aug-25 14:59N 47°48' W 003°43'6 5.8
2017-Aug-25 14:00N 47°44' W 003°36'3 6.3
2017-Aug-25 13:30N 47°42' W 003°33'3 6.0
2017-Aug-25 13:00N 47°41' W 003°29'3 5.8
2017-Aug-25 12:30N 47°39' W 003°26'3 5.4
2017-Aug-25 12:00N 47°37' W 003°23'3 5.8
2017-Aug-25 11:30N 47°35' W 003°20'2 5.0
2017-Aug-25 11:00N 47°33' W 003°17'3 5.9
2017-Aug-25 10:30N 47°31' W 003°14'3 5.8
2017-Aug-25 10:00N 47°29' W 003°11'3 5.9
2017-Aug-25 09:30N 47°27' W 003°08'3 5.6
2017-Aug-25 08:59N 47°27' W 003°03'2 3.7
2017-Aug-25 08:30N 47°28' W 003°04'2 3.6
2017-Aug-25 07:59N 47°29' W 003°06'0 0.0
2017-Aug-24 17:11N 47°29' W 003°06'0 0.0
2017-Aug-24 16:54N 47°29' W 003°06'0 0.0
2017-Aug-24 16:30N 47°29' W 003°06'2 4.1
2017-Aug-24 16:00N 47°30' W 003°03'2 4.7
2017-Aug-24 15:30N 47°31' W 002°60'2 3.2
2017-Aug-24 15:00N 47°30' W 002°58'3 5.4
2017-Aug-24 14:30N 47°28' W 002°57'3 5.9
2017-Aug-24 14:00N 47°25' W 002°56'1 2.4
2017-Aug-24 13:28N 47°23' W 002°56'0 0.0
2017-Aug-24 12:58N 47°23' W 002°56'0 0.0
2017-Aug-24 12:28N 47°23' W 002°56'0 0.0
2017-Aug-24 11:58N 47°23' W 002°56'2 3.1
2017-Aug-24 11:27N 47°22' W 002°55'2 5.1
2017-Aug-24 10:59N 47°20' W 002°57'3 5.3
2017-Aug-24 10:30N 47°21' W 003°00'3 5.5
2017-Aug-24 10:00N 47°22' W 003°04'2 5.0
2017-Aug-24 09:30N 47°22' W 003°08'2 4.5
2017-Aug-24 08:59N 47°22' W 003°11'1 2.2
2017-Aug-24 08:25N 47°23' W 003°13'0 0.0
2017-Aug-23 19:24N 47°23' W 003°13'0 0.0
2017-Aug-23 18:57N 47°23' W 003°13'0 0.0
2017-Aug-23 18:24N 47°23' W 003°13'0 0.0
2017-Aug-23 18:00N 47°23' W 003°13'0 0.0
2017-Aug-23 17:24N 47°23' W 003°13'0 0.0
2017-Aug-23 16:54N 47°23' W 003°13'0 0.0
2017-Aug-23 16:30N 47°23' W 003°13'0 0.0
2017-Aug-23 15:57N 47°23' W 003°13'0 0.0
2017-Aug-23 15:30N 47°23' W 003°13'0 0.0
2017-Aug-23 14:54N 47°23' W 003°13'0 0.0
2017-Aug-23 14:30N 47°23' W 003°13'5 5.5
2017-Aug-23 13:30N 47°28' W 003°14'3 6.8
2017-Aug-23 13:00N 47°31' W 003°17'3 6.9
2017-Aug-23 12:30N 47°34' W 003°20'3 6.8
2017-Aug-23 12:00N 47°37' W 003°22'3 6.6
2017-Aug-23 11:30N 47°40' W 003°24'2 4.2
2017-Aug-23 11:00N 47°39' W 003°27'1 1.7
2017-Aug-23 10:29N 47°39' W 003°28'0 0.0
2017-Aug-22 20:53N 47°39' W 003°28'0 0.0
2017-Aug-22 19:01N 47°39' W 003°28'0 0.1
2017-Aug-22 18:58N 47°39' W 003°28'0 0.0
2017-Aug-22 18:28N 47°39' W 003°28'0 0.0
2017-Aug-22 17:55N 47°39' W 003°28'0 0.0
2017-Aug-22 17:28N 47°39' W 003°28'0 0.9
2017-Aug-22 17:00N 47°39' W 003°28'3 6.2
2017-Aug-22 16:30N 47°41' W 003°31'3 6.2
2017-Aug-22 15:56N 47°44' W 003°34'3 1.3
2017-Aug-22 13:53N 47°46' W 003°37'0 0.1
2017-Aug-22 12:22N 47°46' W 003°37'2 4.4
2017-Aug-22 12:00N 47°46' W 003°39'  
2017-Aug-18 13:19N 47°46' W 003°39'2 4.6
2017-Aug-18 12:50N 47°45' W 003°36'0 1.4
2017-Aug-18 12:30N 47°45' W 003°36'2 4.5
2017-Aug-18 12:00N 47°44' W 003°33'3 5.3
2017-Aug-18 11:30N 47°42' W 003°31'3 5.5
2017-Aug-18 11:00N 47°40' W 003°28'1 2.2
2017-Aug-18 10:29N 47°39' W 003°27'0 0.0
2017-Aug-17 18:06N 47°39' W 003°27'0 0.0
2017-Aug-17 18:00N 47°39' W 003°27'1 1.8
2017-Aug-17 17:30N 47°39' W 003°26'3 6.0
2017-Aug-17 17:01N 47°37' W 003°22'3 6.3
2017-Aug-17 16:31N 47°35' W 003°19'3 6.2
2017-Aug-17 16:00N 47°33' W 003°15'3 6.6
2017-Aug-17 15:31N 47°30' W 003°12'3 6.8
2017-Aug-17 15:00N 47°28' W 003°08'3 5.1
2017-Aug-17 14:30N 47°26' W 003°06'3 5.8
2017-Aug-17 14:00N 47°27' W 003°01'3 5.9
2017-Aug-17 13:30N 47°29' W 002°58'3 5.5
2017-Aug-17 13:00N 47°31' W 002°56'2 3.2
2017-Aug-17 12:29N 47°32' W 002°54'  

Dump ship's entire track history